sensor_id;sensor_type;location;lat;lon;timestamp;temperature;humidity
18287;DHT22;9269;50.838;12.094;2023-01-08T00:01:59;9.90;62.60
18287;DHT22;9269;50.838;12.094;2023-01-08T00:04:27;9.90;62.90
18287;DHT22;9269;50.838;12.094;2023-01-08T00:06:56;9.90;63.00
18287;DHT22;9269;50.838;12.094;2023-01-08T00:09:24;9.90;63.00
18287;DHT22;9269;50.838;12.094;2023-01-08T00:11:54;9.90;62.80
18287;DHT22;9269;50.838;12.094;2023-01-08T00:14:22;9.90;63.00
18287;DHT22;9269;50.838;12.094;2023-01-08T00:16:50;9.80;62.60
18287;DHT22;9269;50.838;12.094;2023-01-08T00:19:19;9.90;63.00
18287;DHT22;9269;50.838;12.094;2023-01-08T00:21:47;9.80;62.80
18287;DHT22;9269;50.838;12.094;2023-01-08T00:24:16;9.90;63.00
18287;DHT22;9269;50.838;12.094;2023-01-08T00:26:44;9.80;62.90
18287;DHT22;9269;50.838;12.094;2023-01-08T00:29:14;9.80;62.80
18287;DHT22;9269;50.838;12.094;2023-01-08T00:31:43;9.80;62.70
18287;DHT22;9269;50.838;12.094;2023-01-08T00:34:11;9.80;63.00
18287;DHT22;9269;50.838;12.094;2023-01-08T00:36:39;9.70;62.80
18287;DHT22;9269;50.838;12.094;2023-01-08T00:39:07;9.70;63.00
18287;DHT22;9269;50.838;12.094;2023-01-08T00:41:36;9.70;62.80
18287;DHT22;9269;50.838;12.094;2023-01-08T00:44:04;9.70;63.00
18287;DHT22;9269;50.838;12.094;2023-01-08T00:46:34;9.70;62.70
18287;DHT22;9269;50.838;12.094;2023-01-08T00:49:03;9.80;63.00
18287;DHT22;9269;50.838;12.094;2023-01-08T00:51:31;9.70;62.90
18287;DHT22;9269;50.838;12.094;2023-01-08T00:54:00;9.70;62.60
18287;DHT22;9269;50.838;12.094;2023-01-08T00:56:29;9.80;63.00
18287;DHT22;9269;50.838;12.094;2023-01-08T00:58:58;9.70;62.90
18287;DHT22;9269;50.838;12.094;2023-01-08T01:01:27;9.70;62.80
18287;DHT22;9269;50.838;12.094;2023-01-08T01:03:57;9.70;62.80
18287;DHT22;9269;50.838;12.094;2023-01-08T01:06:26;9.70;62.40
18287;DHT22;9269;50.838;12.094;2023-01-08T01:08:54;9.70;62.60
18287;DHT22;9269;50.838;12.094;2023-01-08T01:11:25;9.70;62.30
18287;DHT22;9269;50.838;12.094;2023-01-08T01:13:54;9.80;62.40
18287;DHT22;9269;50.838;12.094;2023-01-08T01:16:23;9.70;62.50
18287;DHT22;9269;50.838;12.094;2023-01-08T01:18:52;9.70;62.70
18287;DHT22;9269;50.838;12.094;2023-01-08T01:21:26;9.80;62.40
18287;DHT22;9269;50.838;12.094;2023-01-08T01:23:56;9.80;62.60
18287;DHT22;9269;50.838;12.094;2023-01-08T01:26:25;9.70;62.30
18287;DHT22;9269;50.838;12.094;2023-01-08T01:28:55;9.60;62.40
18287;DHT22;9269;50.838;12.094;2023-01-08T01:31:24;9.70;62.70
18287;DHT22;9269;50.838;12.094;2023-01-08T01:33:53;9.60;62.10
18287;DHT22;9269;50.838;12.094;2023-01-08T01:36:24;9.70;62.10
18287;DHT22;9269;50.838;12.094;2023-01-08T01:38:55;9.60;62.30
18287;DHT22;9269;50.838;12.094;2023-01-08T01:41:25;9.70;62.20
18287;DHT22;9269;50.838;12.094;2023-01-08T01:43:58;9.70;62.20
18287;DHT22;9269;50.838;12.094;2023-01-08T01:46:35;9.70;62.40
18287;DHT22;9269;50.838;12.094;2023-01-08T01:49:08;9.80;61.90
18287;DHT22;9269;50.838;12.094;2023-01-08T01:51:42;9.70;62.30
18287;DHT22;9269;50.838;12.094;2023-01-08T01:54:12;9.70;62.10
18287;DHT22;9269;50.838;12.094;2023-01-08T01:56:42;9.70;62.00
18287;DHT22;9269;50.838;12.094;2023-01-08T01:59:11;9.70;61.90
18287;DHT22;9269;50.838;12.094;2023-01-08T02:01:40;9.80;62.20
18287;DHT22;9269;50.838;12.094;2023-01-08T02:04:10;9.80;61.90
18287;DHT22;9269;50.838;12.094;2023-01-08T02:06:44;9.70;61.90
18287;DHT22;9269;50.838;12.094;2023-01-08T02:09:18;9.70;61.60
18287;DHT22;9269;50.838;12.094;2023-01-08T02:11:49;9.80;61.80
18287;DHT22;9269;50.838;12.094;2023-01-08T02:14:46;9.70;62.20
18287;DHT22;9269;50.838;12.094;2023-01-08T02:17:19;9.70;61.80
18287;DHT22;9269;50.838;12.094;2023-01-08T02:19:55;9.60;62.00
18287;DHT22;9269;50.838;12.094;2023-01-08T02:22:36;9.60;61.70
18287;DHT22;9269;50.838;12.094;2023-01-08T02:25:10;9.60;62.00
18287;DHT22;9269;50.838;12.094;2023-01-08T02:27:47;9.70;61.60
18287;DHT22;9269;50.838;12.094;2023-01-08T02:30:17;9.70;61.60
18287;DHT22;9269;50.838;12.094;2023-01-08T02:32:45;9.60;61.40
18287;DHT22;9269;50.838;12.094;2023-01-08T02:35:14;9.70;61.40
18287;DHT22;9269;50.838;12.094;2023-01-08T02:37:43;9.60;61.80
18287;DHT22;9269;50.838;12.094;2023-01-08T02:40:20;9.70;61.50
18287;DHT22;9269;50.838;12.094;2023-01-08T02:42:56;9.70;61.50
18287;DHT22;9269;50.838;12.094;2023-01-08T02:45:34;9.70;61.50
18287;DHT22;9269;50.838;12.094;2023-01-08T02:48:08;9.70;61.50
18287;DHT22;9269;50.838;12.094;2023-01-08T02:50:40;9.60;61.60
18287;DHT22;9269;50.838;12.094;2023-01-08T02:53:12;9.70;61.30
18287;DHT22;9269;50.838;12.094;2023-01-08T02:55:45;9.70;61.50
18287;DHT22;9269;50.838;12.094;2023-01-08T02:58:16;9.70;61.50
18287;DHT22;9269;50.838;12.094;2023-01-08T03:00:45;9.70;61.30
18287;DHT22;9269;50.838;12.094;2023-01-08T03:03:17;9.70;61.30
18287;DHT22;9269;50.838;12.094;2023-01-08T03:05:49;9.60;61.20
18287;DHT22;9269;50.838;12.094;2023-01-08T03:08:18;9.60;61.30
18287;DHT22;9269;50.838;12.094;2023-01-08T03:10:51;9.60;61.40
18287;DHT22;9269;50.838;12.094;2023-01-08T03:13:25;9.60;61.50
18287;DHT22;9269;50.838;12.094;2023-01-08T03:15:56;9.60;61.40
18287;DHT22;9269;50.838;12.094;2023-01-08T03:18:30;9.50;61.50
18287;DHT22;9269;50.838;12.094;2023-01-08T03:21:02;9.50;61.60
18287;DHT22;9269;50.838;12.094;2023-01-08T03:23:34;9.60;61.30
18287;DHT22;9269;50.838;12.094;2023-01-08T03:26:05;9.60;61.50
18287;DHT22;9269;50.838;12.094;2023-01-08T03:28:40;9.50;61.50
18287;DHT22;9269;50.838;12.094;2023-01-08T03:31:09;9.50;61.20
18287;DHT22;9269;50.838;12.094;2023-01-08T03:33:42;9.50;61.60
18287;DHT22;9269;50.838;12.094;2023-01-08T03:36:13;9.40;61.30
18287;DHT22;9269;50.838;12.094;2023-01-08T03:38:47;9.50;61.90
18287;DHT22;9269;50.838;12.094;2023-01-08T03:41:18;9.50;61.30
18287;DHT22;9269;50.838;12.094;2023-01-08T03:43:49;9.50;61.20
18287;DHT22;9269;50.838;12.094;2023-01-08T03:46:22;9.50;61.40
18287;DHT22;9269;50.838;12.094;2023-01-08T03:48:54;9.50;61.10
18287;DHT22;9269;50.838;12.094;2023-01-08T03:51:23;9.60;61.30
18287;DHT22;9269;50.838;12.094;2023-01-08T03:53:55;9.50;61.60
18287;DHT22;9269;50.838;12.094;2023-01-08T03:56:25;9.50;61.20
18287;DHT22;9269;50.838;12.094;2023-01-08T03:58:55;9.60;61.10
18287;DHT22;9269;50.838;12.094;2023-01-08T04:01:24;9.50;61.30
18287;DHT22;9269;50.838;12.094;2023-01-08T04:03:52;9.50;61.50
18287;DHT22;9269;50.838;12.094;2023-01-08T04:06:23;9.50;61.20
18287;DHT22;9269;50.838;12.094;2023-01-08T04:08:51;9.50;61.30
18287;DHT22;9269;50.838;12.094;2023-01-08T04:11:20;9.50;61.50
18287;DHT22;9269;50.838;12.094;2023-01-08T04:13:49;9.50;61.00
18287;DHT22;9269;50.838;12.094;2023-01-08T04:16:19;9.60;61.20
18287;DHT22;9269;50.838;12.094;2023-01-08T04:18:47;9.60;61.20
18287;DHT22;9269;50.838;12.094;2023-01-08T04:21:16;9.50;61.10
18287;DHT22;9269;50.838;12.094;2023-01-08T04:23:44;9.50;61.20
18287;DHT22;9269;50.838;12.094;2023-01-08T04:26:13;9.60;60.90
18287;DHT22;9269;50.838;12.094;2023-01-08T04:28:41;9.50;61.30
18287;DHT22;9269;50.838;12.094;2023-01-08T04:31:09;9.50;60.90
18287;DHT22;9269;50.838;12.094;2023-01-08T04:33:39;9.50;60.90
18287;DHT22;9269;50.838;12.094;2023-01-08T04:36:08;9.50;61.00
18287;DHT22;9269;50.838;12.094;2023-01-08T04:38:36;9.60;61.10
18287;DHT22;9269;50.838;12.094;2023-01-08T04:41:09;9.60;60.90
18287;DHT22;9269;50.838;12.094;2023-01-08T04:43:37;9.50;61.00
18287;DHT22;9269;50.838;12.094;2023-01-08T04:46:06;9.50;61.30
18287;DHT22;9269;50.838;12.094;2023-01-08T04:48:34;9.60;61.10
18287;DHT22;9269;50.838;12.094;2023-01-08T04:51:04;9.50;61.40
18287;DHT22;9269;50.838;12.094;2023-01-08T04:53:35;9.50;61.30
18287;DHT22;9269;50.838;12.094;2023-01-08T04:56:07;9.50;61.30
18287;DHT22;9269;50.838;12.094;2023-01-08T04:58:36;9.50;60.80
18287;DHT22;9269;50.838;12.094;2023-01-08T05:01:10;9.60;61.30
18287;DHT22;9269;50.838;12.094;2023-01-08T05:03:39;9.50;61.10
18287;DHT22;9269;50.838;12.094;2023-01-08T05:06:08;9.50;61.30
18287;DHT22;9269;50.838;12.094;2023-01-08T05:08:37;9.60;61.10
18287;DHT22;9269;50.838;12.094;2023-01-08T05:11:05;9.60;61.30
18287;DHT22;9269;50.838;12.094;2023-01-08T05:13:34;9.60;61.10
18287;DHT22;9269;50.838;12.094;2023-01-08T05:16:03;9.50;61.00
18287;DHT22;9269;50.838;12.094;2023-01-08T05:18:32;9.60;61.40
18287;DHT22;9269;50.838;12.094;2023-01-08T05:21:00;9.50;61.10
18287;DHT22;9269;50.838;12.094;2023-01-08T05:23:33;9.50;61.00
18287;DHT22;9269;50.838;12.094;2023-01-08T05:26:03;9.60;61.20
18287;DHT22;9269;50.838;12.094;2023-01-08T05:28:32;9.60;61.20
18287;DHT22;9269;50.838;12.094;2023-01-08T05:31:01;9.60;61.30
18287;DHT22;9269;50.838;12.094;2023-01-08T05:33:29;9.60;61.20
18287;DHT22;9269;50.838;12.094;2023-01-08T05:35:58;9.60;61.20
18287;DHT22;9269;50.838;12.094;2023-01-08T05:38:27;9.60;61.40
18287;DHT22;9269;50.838;12.094;2023-01-08T05:40:57;9.60;61.30
18287;DHT22;9269;50.838;12.094;2023-01-08T05:43:27;9.60;61.50
18287;DHT22;9269;50.838;12.094;2023-01-08T05:45:57;9.70;61.40
18287;DHT22;9269;50.838;12.094;2023-01-08T05:48:27;9.70;61.20
18287;DHT22;9269;50.838;12.094;2023-01-08T05:50:55;9.60;61.20
18287;DHT22;9269;50.838;12.094;2023-01-08T05:53:24;9.70;61.20
18287;DHT22;9269;50.838;12.094;2023-01-08T05:55:59;9.60;61.50
18287;DHT22;9269;50.838;12.094;2023-01-08T05:58:28;9.60;61.20
18287;DHT22;9269;50.838;12.094;2023-01-08T06:01:01;9.60;61.20
18287;DHT22;9269;50.838;12.094;2023-01-08T06:03:30;9.60;61.30
18287;DHT22;9269;50.838;12.094;2023-01-08T06:05:59;9.60;61.30
18287;DHT22;9269;50.838;12.094;2023-01-08T06:08:28;9.60;61.80
18287;DHT22;9269;50.838;12.094;2023-01-08T06:10:59;9.60;61.30
18287;DHT22;9269;50.838;12.094;2023-01-08T06:13:28;9.60;61.60
18287;DHT22;9269;50.838;12.094;2023-01-08T06:15:57;9.60;61.70
18287;DHT22;9269;50.838;12.094;2023-01-08T06:18:27;9.60;61.60
18287;DHT22;9269;50.838;12.094;2023-01-08T06:20:56;9.60;61.40
18287;DHT22;9269;50.838;12.094;2023-01-08T06:23:25;9.60;61.60
18287;DHT22;9269;50.838;12.094;2023-01-08T06:25:54;9.60;61.30
18287;DHT22;9269;50.838;12.094;2023-01-08T06:28:25;9.60;61.30
18287;DHT22;9269;50.838;12.094;2023-01-08T06:30:53;9.50;61.20
18287;DHT22;9269;50.838;12.094;2023-01-08T06:33:24;9.60;61.60
18287;DHT22;9269;50.838;12.094;2023-01-08T06:35:53;9.60;61.40
18287;DHT22;9269;50.838;12.094;2023-01-08T06:38:22;9.60;61.40
18287;DHT22;9269;50.838;12.094;2023-01-08T06:40:50;9.60;61.70
18287;DHT22;9269;50.838;12.094;2023-01-08T06:43:18;9.60;61.60
18287;DHT22;9269;50.838;12.094;2023-01-08T06:45:55;9.70;61.70
18287;DHT22;9269;50.838;12.094;2023-01-08T06:48:24;9.70;61.50
18287;DHT22;9269;50.838;12.094;2023-01-08T06:50:53;9.70;61.60
18287;DHT22;9269;50.838;12.094;2023-01-08T06:53:22;9.70;61.50
18287;DHT22;9269;50.838;12.094;2023-01-08T06:55:50;9.70;61.30
18287;DHT22;9269;50.838;12.094;2023-01-08T06:58:28;9.70;61.50
18287;DHT22;9269;50.838;12.094;2023-01-08T07:00:58;9.70;61.60
18287;DHT22;9269;50.838;12.094;2023-01-08T07:03:26;9.70;61.50
18287;DHT22;9269;50.838;12.094;2023-01-08T07:05:55;9.70;61.30
18287;DHT22;9269;50.838;12.094;2023-01-08T07:08:24;9.70;61.30
18287;DHT22;9269;50.838;12.094;2023-01-08T07:10:53;9.70;61.50
18287;DHT22;9269;50.838;12.094;2023-01-08T07:13:21;9.70;61.50
18287;DHT22;9269;50.838;12.094;2023-01-08T07:15:50;9.60;61.30
18287;DHT22;9269;50.838;12.094;2023-01-08T07:18:20;9.60;61.70
18287;DHT22;9269;50.838;12.094;2023-01-08T07:20:49;9.70;61.70
18287;DHT22;9269;50.838;12.094;2023-01-08T07:23:17;9.80;61.50
18287;DHT22;9269;50.838;12.094;2023-01-08T07:25:46;9.80;61.10
18287;DHT22;9269;50.838;12.094;2023-01-08T07:28:14;9.80;61.20
18287;DHT22;9269;50.838;12.094;2023-01-08T07:30:43;9.80;61.30
18287;DHT22;9269;50.838;12.094;2023-01-08T07:33:11;9.80;61.20
18287;DHT22;9269;50.838;12.094;2023-01-08T07:35:41;9.80;61.40
18287;DHT22;9269;50.838;12.094;2023-01-08T07:38:10;9.80;61.50
18287;DHT22;9269;50.838;12.094;2023-01-08T07:40:38;9.80;61.30
18287;DHT22;9269;50.838;12.094;2023-01-08T07:43:08;9.80;61.60
18287;DHT22;9269;50.838;12.094;2023-01-08T07:45:38;9.80;61.50
18287;DHT22;9269;50.838;12.094;2023-01-08T07:48:07;9.80;61.30
18287;DHT22;9269;50.838;12.094;2023-01-08T07:50:43;9.90;61.60
18287;DHT22;9269;50.838;12.094;2023-01-08T07:53:13;9.70;61.20
18287;DHT22;9269;50.838;12.094;2023-01-08T07:55:43;9.80;61.50
18287;DHT22;9269;50.838;12.094;2023-01-08T07:58:13;9.90;61.60
18287;DHT22;9269;50.838;12.094;2023-01-08T08:00:41;9.80;61.40
18287;DHT22;9269;50.838;12.094;2023-01-08T08:03:09;9.80;61.80
18287;DHT22;9269;50.838;12.094;2023-01-08T08:05:38;9.80;61.50
18287;DHT22;9269;50.838;12.094;2023-01-08T08:08:10;9.90;61.70
18287;DHT22;9269;50.838;12.094;2023-01-08T08:10:39;9.90;62.10
18287;DHT22;9269;50.838;12.094;2023-01-08T08:13:09;9.80;61.80
18287;DHT22;9269;50.838;12.094;2023-01-08T08:15:38;9.90;61.50
18287;DHT22;9269;50.838;12.094;2023-01-08T08:18:07;10.00;62.10
18287;DHT22;9269;50.838;12.094;2023-01-08T08:20:36;10.00;61.80
18287;DHT22;9269;50.838;12.094;2023-01-08T08:23:06;9.90;62.20
18287;DHT22;9269;50.838;12.094;2023-01-08T08:25:36;10.00;62.00
18287;DHT22;9269;50.838;12.094;2023-01-08T08:28:05;9.90;62.00
18287;DHT22;9269;50.838;12.094;2023-01-08T08:30:34;10.00;61.90
18287;DHT22;9269;50.838;12.094;2023-01-08T08:33:04;10.10;61.90
18287;DHT22;9269;50.838;12.094;2023-01-08T08:35:34;10.10;61.60
18287;DHT22;9269;50.838;12.094;2023-01-08T08:38:02;10.10;61.60
18287;DHT22;9269;50.838;12.094;2023-01-08T08:40:31;10.10;61.90
18287;DHT22;9269;50.838;12.094;2023-01-08T08:43:02;10.10;61.70
18287;DHT22;9269;50.838;12.094;2023-01-08T08:45:30;10.20;61.90
18287;DHT22;9269;50.838;12.094;2023-01-08T08:47:59;10.20;62.00
18287;DHT22;9269;50.838;12.094;2023-01-08T08:50:27;10.20;61.50
18287;DHT22;9269;50.838;12.094;2023-01-08T08:52:58;10.10;61.60
18287;DHT22;9269;50.838;12.094;2023-01-08T08:55:26;10.20;61.30
18287;DHT22;9269;50.838;12.094;2023-01-08T08:58:00;10.20;61.50
18287;DHT22;9269;50.838;12.094;2023-01-08T09:00:30;10.20;61.30
18287;DHT22;9269;50.838;12.094;2023-01-08T09:02:58;10.20;61.50
18287;DHT22;9269;50.838;12.094;2023-01-08T09:05:27;10.20;61.30
18287;DHT22;9269;50.838;12.094;2023-01-08T09:07:56;10.20;61.20
18287;DHT22;9269;50.838;12.094;2023-01-08T09:10:24;10.20;61.30
18287;DHT22;9269;50.838;12.094;2023-01-08T09:12:53;10.20;61.40
18287;DHT22;9269;50.838;12.094;2023-01-08T09:15:21;10.20;61.20
18287;DHT22;9269;50.838;12.094;2023-01-08T09:17:55;10.20;61.50
18287;DHT22;9269;50.838;12.094;2023-01-08T09:20:25;10.30;61.20
18287;DHT22;9269;50.838;12.094;2023-01-08T09:22:54;10.30;61.10
18287;DHT22;9269;50.838;12.094;2023-01-08T09:25:25;10.30;61.10
18287;DHT22;9269;50.838;12.094;2023-01-08T09:27:58;10.30;61.00
18287;DHT22;9269;50.838;12.094;2023-01-08T09:30:27;10.40;61.00
18287;DHT22;9269;50.838;12.094;2023-01-08T09:32:57;10.40;61.50
18287;DHT22;9269;50.838;12.094;2023-01-08T09:35:28;10.40;61.50
18287;DHT22;9269;50.838;12.094;2023-01-08T09:37:57;10.50;61.10
18287;DHT22;9269;50.838;12.094;2023-01-08T09:40:30;10.50;61.20
18287;DHT22;9269;50.838;12.094;2023-01-08T09:43:00;10.50;61.10
18287;DHT22;9269;50.838;12.094;2023-01-08T09:45:31;10.60;60.90
18287;DHT22;9269;50.838;12.094;2023-01-08T09:48:05;10.50;60.70
18287;DHT22;9269;50.838;12.094;2023-01-08T09:50:34;10.60;60.80
18287;DHT22;9269;50.838;12.094;2023-01-08T09:53:03;10.60;61.20
18287;DHT22;9269;50.838;12.094;2023-01-08T09:55:33;10.60;61.10
18287;DHT22;9269;50.838;12.094;2023-01-08T09:58:02;10.70;60.90
18287;DHT22;9269;50.838;12.094;2023-01-08T10:00:32;10.70;60.70
18287;DHT22;9269;50.838;12.094;2023-01-08T10:03:03;10.70;60.30
18287;DHT22;9269;50.838;12.094;2023-01-08T10:05:31;10.70;60.90
18287;DHT22;9269;50.838;12.094;2023-01-08T10:08:00;10.70;60.60
18287;DHT22;9269;50.838;12.094;2023-01-08T10:10:30;10.80;60.60
18287;DHT22;9269;50.838;12.094;2023-01-08T10:12:58;10.70;60.40
18287;DHT22;9269;50.838;12.094;2023-01-08T10:15:27;10.80;60.80
18287;DHT22;9269;50.838;12.094;2023-01-08T10:18:01;10.80;60.40
18287;DHT22;9269;50.838;12.094;2023-01-08T10:20:32;10.90;60.80
18287;DHT22;9269;50.838;12.094;2023-01-08T10:23:09;10.90;60.40
18287;DHT22;9269;50.838;12.094;2023-01-08T10:25:49;10.80;60.70
18287;DHT22;9269;50.838;12.094;2023-01-08T10:28:21;10.80;60.70
18287;DHT22;9269;50.838;12.094;2023-01-08T10:30:51;10.80;60.70
18287;DHT22;9269;50.838;12.094;2023-01-08T10:33:23;10.90;60.60
18287;DHT22;9269;50.838;12.094;2023-01-08T10:35:56;10.90;60.30
18287;DHT22;9269;50.838;12.094;2023-01-08T10:38:29;10.90;60.60
18287;DHT22;9269;50.838;12.094;2023-01-08T10:41:00;10.90;60.00
18287;DHT22;9269;50.838;12.094;2023-01-08T10:43:33;10.90;60.20
18287;DHT22;9269;50.838;12.094;2023-01-08T10:46:06;10.90;60.40
18287;DHT22;9269;50.838;12.094;2023-01-08T10:48:38;10.90;60.50
18287;DHT22;9269;50.838;12.094;2023-01-08T10:51:13;10.90;60.30
18287;DHT22;9269;50.838;12.094;2023-01-08T10:53:42;10.90;60.60
18287;DHT22;9269;50.838;12.094;2023-01-08T10:56:21;11.00;60.50
18287;DHT22;9269;50.838;12.094;2023-01-08T10:58:50;11.00;60.70
18287;DHT22;9269;50.838;12.094;2023-01-08T11:01:22;11.00;60.40
18287;DHT22;9269;50.838;12.094;2023-01-08T11:03:52;11.10;60.50
18287;DHT22;9269;50.838;12.094;2023-01-08T11:06:25;11.10;60.60
18287;DHT22;9269;50.838;12.094;2023-01-08T11:08:56;11.10;60.70
18287;DHT22;9269;50.838;12.094;2023-01-08T11:11:31;11.20;60.40
18287;DHT22;9269;50.838;12.094;2023-01-08T11:14:02;11.10;60.40
18287;DHT22;9269;50.838;12.094;2023-01-08T11:16:33;11.20;60.60
18287;DHT22;9269;50.838;12.094;2023-01-08T11:19:02;11.20;60.60
18287;DHT22;9269;50.838;12.094;2023-01-08T11:21:32;11.30;60.30
18287;DHT22;9269;50.838;12.094;2023-01-08T11:24:16;11.30;60.50
18287;DHT22;9269;50.838;12.094;2023-01-08T11:26:49;11.40;60.40
18287;DHT22;9269;50.838;12.094;2023-01-08T11:29:22;11.50;60.50
18287;DHT22;9269;50.838;12.094;2023-01-08T11:31:54;11.50;60.20
18287;DHT22;9269;50.838;12.094;2023-01-08T11:34:29;11.50;60.10
18287;DHT22;9269;50.838;12.094;2023-01-08T11:37:04;11.50;60.20
18287;DHT22;9269;50.838;12.094;2023-01-08T11:39:37;11.60;60.10
18287;DHT22;9269;50.838;12.094;2023-01-08T11:42:17;11.60;59.90
18287;DHT22;9269;50.838;12.094;2023-01-08T11:44:59;11.80;60.40
18287;DHT22;9269;50.838;12.094;2023-01-08T11:47:50;11.70;60.20
18287;DHT22;9269;50.838;12.094;2023-01-08T11:50:27;11.70;60.10
18287;DHT22;9269;50.838;12.094;2023-01-08T11:53:09;11.70;60.30
18287;DHT22;9269;50.838;12.094;2023-01-08T11:55:45;11.80;60.40
18287;DHT22;9269;50.838;12.094;2023-01-08T11:58:22;11.80;60.20
18287;DHT22;9269;50.838;12.094;2023-01-08T12:01:02;11.90;60.40
18287;DHT22;9269;50.838;12.094;2023-01-08T12:03:36;12.00;60.50
18287;DHT22;9269;50.838;12.094;2023-01-08T12:06:25;12.10;60.20
18287;DHT22;9269;50.838;12.094;2023-01-08T12:09:06;12.00;60.50
18287;DHT22;9269;50.838;12.094;2023-01-08T12:11:43;12.20;60.20
18287;DHT22;9269;50.838;12.094;2023-01-08T12:14:37;12.20;60.10
18287;DHT22;9269;50.838;12.094;2023-01-08T12:17:24;12.30;60.20
18287;DHT22;9269;50.838;12.094;2023-01-08T12:20:06;12.20;60.30
18287;DHT22;9269;50.838;12.094;2023-01-08T12:22:43;12.20;60.50
18287;DHT22;9269;50.838;12.094;2023-01-08T12:25:36;12.20;60.50
18287;DHT22;9269;50.838;12.094;2023-01-08T12:28:16;12.20;60.40
18287;DHT22;9269;50.838;12.094;2023-01-08T12:31:06;12.20;60.50
18287;DHT22;9269;50.838;12.094;2023-01-08T12:33:40;12.20;60.50
18287;DHT22;9269;50.838;12.094;2023-01-08T12:36:16;12.20;60.20
18287;DHT22;9269;50.838;12.094;2023-01-08T12:38:51;12.30;60.10
18287;DHT22;9269;50.838;12.094;2023-01-08T12:41:24;12.30;60.20
18287;DHT22;9269;50.838;12.094;2023-01-08T12:43:54;12.30;60.10
18287;DHT22;9269;50.838;12.094;2023-01-08T12:46:26;12.30;60.70
18287;DHT22;9269;50.838;12.094;2023-01-08T12:48:55;12.30;60.40
18287;DHT22;9269;50.838;12.094;2023-01-08T12:51:30;12.30;60.20
18287;DHT22;9269;50.838;12.094;2023-01-08T12:54:05;12.30;60.10
18287;DHT22;9269;50.838;12.094;2023-01-08T12:56:42;12.20;60.00
18287;DHT22;9269;50.838;12.094;2023-01-08T12:59:20;12.30;60.40
18287;DHT22;9269;50.838;12.094;2023-01-08T13:01:54;12.30;60.20
18287;DHT22;9269;50.838;12.094;2023-01-08T13:04:25;12.20;60.60
18287;DHT22;9269;50.838;12.094;2023-01-08T13:06:59;12.30;60.20
18287;DHT22;9269;50.838;12.094;2023-01-08T13:09:30;12.20;60.40
18287;DHT22;9269;50.838;12.094;2023-01-08T13:12:00;12.30;60.50
18287;DHT22;9269;50.838;12.094;2023-01-08T13:14:39;12.20;60.50
18287;DHT22;9269;50.838;12.094;2023-01-08T13:17:16;12.30;60.30
18287;DHT22;9269;50.838;12.094;2023-01-08T13:19:51;12.30;60.50
18287;DHT22;9269;50.838;12.094;2023-01-08T13:22:24;12.30;60.50
18287;DHT22;9269;50.838;12.094;2023-01-08T13:25:08;12.30;60.60
18287;DHT22;9269;50.838;12.094;2023-01-08T13:27:38;12.30;60.50
18287;DHT22;9269;50.838;12.094;2023-01-08T13:30:32;12.20;60.60
18287;DHT22;9269;50.838;12.094;2023-01-08T13:33:01;12.30;60.70
18287;DHT22;9269;50.838;12.094;2023-01-08T13:35:31;12.30;60.50
18287;DHT22;9269;50.838;12.094;2023-01-08T13:38:12;12.20;60.90
18287;DHT22;9269;50.838;12.094;2023-01-08T13:40:53;12.30;60.40
18287;DHT22;9269;50.838;12.094;2023-01-08T13:43:27;12.30;60.70
18287;DHT22;9269;50.838;12.094;2023-01-08T13:46:14;12.30;60.60
18287;DHT22;9269;50.838;12.094;2023-01-08T13:48:49;12.30;60.60
18287;DHT22;9269;50.838;12.094;2023-01-08T13:51:29;12.30;60.60
18287;DHT22;9269;50.838;12.094;2023-01-08T13:54:05;12.30;60.70
18287;DHT22;9269;50.838;12.094;2023-01-08T13:56:35;12.30;61.10
18287;DHT22;9269;50.838;12.094;2023-01-08T13:59:05;12.20;60.80
18287;DHT22;9269;50.838;12.094;2023-01-08T14:01:34;12.20;60.90
18287;DHT22;9269;50.838;12.094;2023-01-08T14:04:02;12.30;60.90
18287;DHT22;9269;50.838;12.094;2023-01-08T14:06:31;12.30;60.90
18287;DHT22;9269;50.838;12.094;2023-01-08T14:09:03;12.30;61.00
18287;DHT22;9269;50.838;12.094;2023-01-08T14:11:38;12.30;60.80
18287;DHT22;9269;50.838;12.094;2023-01-08T14:14:11;12.40;60.90
18287;DHT22;9269;50.838;12.094;2023-01-08T14:16:40;12.20;60.70
18287;DHT22;9269;50.838;12.094;2023-01-08T14:19:15;12.30;60.80
18287;DHT22;9269;50.838;12.094;2023-01-08T14:21:46;12.20;60.90
18287;DHT22;9269;50.838;12.094;2023-01-08T14:24:15;12.20;61.20
18287;DHT22;9269;50.838;12.094;2023-01-08T14:26:50;12.30;60.90
18287;DHT22;9269;50.838;12.094;2023-01-08T14:29:23;12.30;61.10
18287;DHT22;9269;50.838;12.094;2023-01-08T14:31:53;12.30;61.20
18287;DHT22;9269;50.838;12.094;2023-01-08T14:34:24;12.40;61.10
18287;DHT22;9269;50.838;12.094;2023-01-08T14:36:54;12.30;61.40
18287;DHT22;9269;50.838;12.094;2023-01-08T14:39:25;12.30;61.40
18287;DHT22;9269;50.838;12.094;2023-01-08T14:42:00;12.20;61.40
18287;DHT22;9269;50.838;12.094;2023-01-08T14:44:54;12.30;61.50
18287;DHT22;9269;50.838;12.094;2023-01-08T14:47:27;12.30;61.60
18287;DHT22;9269;50.838;12.094;2023-01-08T14:49:56;12.40;61.90
18287;DHT22;9269;50.838;12.094;2023-01-08T14:52:25;12.40;61.70
18287;DHT22;9269;50.838;12.094;2023-01-08T14:54:55;12.20;61.70
18287;DHT22;9269;50.838;12.094;2023-01-08T14:57:26;12.30;61.60
18287;DHT22;9269;50.838;12.094;2023-01-08T14:59:58;12.30;61.80
18287;DHT22;9269;50.838;12.094;2023-01-08T15:02:29;12.20;61.60
18287;DHT22;9269;50.838;12.094;2023-01-08T15:05:12;12.20;61.90
18287;DHT22;9269;50.838;12.094;2023-01-08T15:07:42;12.10;61.90
18287;DHT22;9269;50.838;12.094;2023-01-08T15:10:31;12.10;61.90
18287;DHT22;9269;50.838;12.094;2023-01-08T15:13:01;12.00;62.20
18287;DHT22;9269;50.838;12.094;2023-01-08T15:15:35;12.10;62.10
18287;DHT22;9269;50.838;12.094;2023-01-08T15:18:09;11.90;62.10
18287;DHT22;9269;50.838;12.094;2023-01-08T15:20:39;12.10;62.30
18287;DHT22;9269;50.838;12.094;2023-01-08T15:23:24;12.00;62.50
18287;DHT22;9269;50.838;12.094;2023-01-08T15:25:54;12.00;62.40
18287;DHT22;9269;50.838;12.094;2023-01-08T15:28:22;12.10;62.70
18287;DHT22;9269;50.838;12.094;2023-01-08T15:30:55;12.10;62.60
18287;DHT22;9269;50.838;12.094;2023-01-08T15:33:24;12.00;62.60
18287;DHT22;9269;50.838;12.094;2023-01-08T15:35:54;12.00;62.90
18287;DHT22;9269;50.838;12.094;2023-01-08T15:38:24;12.10;63.00
18287;DHT22;9269;50.838;12.094;2023-01-08T15:40:53;12.00;62.80
18287;DHT22;9269;50.838;12.094;2023-01-08T15:43:22;12.00;63.00
18287;DHT22;9269;50.838;12.094;2023-01-08T15:45:49;12.00;62.80
18287;DHT22;9269;50.838;12.094;2023-01-08T15:48:19;12.10;62.90
18287;DHT22;9269;50.838;12.094;2023-01-08T15:50:48;11.90;63.00
18287;DHT22;9269;50.838;12.094;2023-01-08T15:53:19;12.10;62.90
18287;DHT22;9269;50.838;12.094;2023-01-08T15:55:49;12.00;63.10
18287;DHT22;9269;50.838;12.094;2023-01-08T15:58:18;11.80;63.20
18287;DHT22;9269;50.838;12.094;2023-01-08T16:00:46;11.90;63.00
18287;DHT22;9269;50.838;12.094;2023-01-08T16:03:15;11.90;63.30
18287;DHT22;9269;50.838;12.094;2023-01-08T16:05:45;11.80;63.50
18287;DHT22;9269;50.838;12.094;2023-01-08T16:08:13;11.70;63.20